CA-0487 weather

CLOSED Long Branch Aerodrome
Mississauga, Ontario, Canada

Public forecast

Using degrees Celsius for public forecast. Weather courtesy of forecast.io.

Closest aviation weather report (METAR) to Long Branch Aerodrome

Closest report is Lester B. Pearson International Airport, 7.1 nm (13.1 km) NNW. Retrieved 2019/11/22 22:00 UTC (15 minutes ago):

CYYZ 222200Z 30017KT 15SM BKN040 01/M07 A3000 RMK SC6 SLP166

Closest aviation forecast (TAF) to Long Branch Aerodrome

Closest forecast is Lester B. Pearson International Airport, 7.1 nm (13.1 km) NNW. Retrieved 2019/11/22 21:39 UTC (36 minutes ago):

TAF CYYZ 222038Z 2221/2324 30015G25KT P6SM BKN040 FM230000 28012KT P6SM BKN030 FM230700 24008KT P6SM FEW025 FM231500 24012KT P6SM SKC FM232200 21008KT P6SM BKN150 RMK NXT FCST BY 230000Z